createdAt,value
2018-09-22T00:01:11.422Z,2.33
2018-09-22T00:03:42.043Z,2.03
2018-09-22T00:06:12.397Z,2.60
2018-09-22T00:08:42.617Z,2.80
2018-09-22T00:11:13.413Z,2.53
2018-09-22T00:13:43.646Z,2.43
2018-09-22T00:16:13.989Z,2.27
2018-09-22T00:18:45.141Z,3.07
2018-09-22T00:21:15.284Z,2.03
2018-09-22T00:23:45.380Z,1.70
2018-09-22T00:26:15.655Z,3.80
2018-09-22T00:28:46.127Z,2.60
2018-09-22T00:31:16.593Z,1.87
2018-09-22T00:33:47.829Z,2.27
2018-09-22T00:36:17.983Z,1.67
2018-09-22T00:38:48.235Z,3.07
2018-09-22T00:41:18.489Z,1.87
2018-09-22T00:43:49.103Z,2.77
2018-09-22T00:46:19.536Z,3.17
2018-09-22T00:48:49.591Z,1.93
2018-09-22T00:51:19.983Z,2.87
2018-09-22T00:53:50.234Z,2.33
2018-09-22T00:56:20.601Z,2.20
2018-09-22T00:58:50.901Z,1.83
2018-09-22T01:01:21.423Z,2.33
2018-09-22T01:03:51.915Z,2.93
2018-09-22T01:06:22.282Z,2.80
2018-09-22T01:08:52.937Z,1.40
2018-09-22T01:11:23.279Z,2.33
2018-09-22T01:13:53.519Z,1.63
2018-09-22T01:16:23.733Z,2.83
2018-09-22T01:18:54.157Z,1.63
2018-09-22T01:21:24.303Z,2.57
2018-09-22T01:23:54.723Z,1.80
2018-09-22T01:26:25.190Z,1.67
2018-09-22T01:28:55.752Z,1.70
2018-09-22T01:31:26.009Z,1.60
2018-09-22T01:33:56.687Z,2.83
2018-09-22T01:37:02.481Z,2.03
2018-09-22T01:39:38.104Z,1.93
2018-09-22T01:42:08.551Z,2.13
2018-09-22T01:44:38.554Z,1.57
2018-09-22T01:47:08.695Z,3.07
2018-09-22T01:49:38.989Z,2.80
2018-09-22T01:52:09.179Z,2.27
2018-09-22T01:54:39.676Z,1.07
2018-09-22T01:57:10.092Z,1.20
2018-09-22T01:59:40.420Z,2.33
2018-09-22T02:02:10.868Z,3.17
2018-09-22T02:04:41.111Z,1.50
2018-09-22T02:07:11.297Z,1.80
2018-09-22T02:09:41.740Z,2.67
2018-09-22T02:12:12.042Z,4.07
2018-09-22T02:14:42.456Z,2.00
2018-09-22T02:17:12.700Z,2.10
2018-09-22T02:19:43.228Z,2.20
2018-09-22T02:22:13.436Z,1.47
2018-09-22T02:24:43.582Z,1.20
2018-09-22T02:27:13.610Z,2.30
2018-09-22T02:29:43.673Z,1.90
2018-09-22T02:32:13.748Z,2.37
2018-09-22T02:34:43.874Z,2.13
2018-09-22T02:37:13.884Z,2.33
2018-09-22T02:39:43.978Z,2.17
2018-09-22T02:42:14.032Z,1.63
2018-09-22T02:44:43.965Z,1.90
2018-09-22T02:47:14.069Z,2.40
2018-09-22T02:49:44.156Z,3.83
2018-09-22T02:52:14.337Z,3.83
2018-09-22T02:54:44.526Z,1.47
2018-09-22T02:57:16.122Z,1.47
2018-09-22T02:59:46.292Z,1.40
2018-09-22T03:02:16.673Z,2.20
2018-09-22T03:04:47.002Z,2.23
2018-09-22T03:07:17.092Z,1.90
2018-09-22T03:09:47.456Z,2.47
2018-09-22T03:12:17.554Z,3.27
2018-09-22T03:14:47.724Z,2.10
2018-09-22T03:17:17.874Z,2.40
2018-09-22T03:19:48.194Z,1.43
2018-09-22T03:22:18.297Z,1.57
2018-09-22T03:24:48.719Z,2.13
2018-09-22T03:27:18.883Z,1.83
2018-09-22T03:29:49.009Z,1.63
2018-09-22T03:32:19.349Z,1.37
2018-09-22T03:34:49.637Z,2.23
2018-09-22T03:37:19.901Z,1.60
2018-09-22T03:39:50.016Z,2.27
2018-09-22T03:42:20.088Z,2.43
2018-09-22T03:44:50.292Z,2.50
2018-09-22T03:47:20.597Z,3.50
2018-09-22T03:49:50.668Z,2.70
2018-09-22T03:52:20.891Z,3.73
2018-09-22T03:54:50.981Z,2.10
2018-09-22T03:57:21.615Z,2.77
2018-09-22T03:59:51.809Z,1.53
2018-09-22T04:02:21.857Z,1.90
2018-09-22T04:04:52.043Z,1.57
2018-09-22T04:07:22.278Z,2.00
2018-09-22T04:09:52.507Z,0.93
2018-09-22T04:12:22.540Z,4.17
2018-09-22T04:14:53.019Z,1.93
2018-09-22T04:17:23.494Z,2.00
2018-09-22T04:19:54.048Z,3.00
2018-09-22T04:22:24.501Z,2.70
2018-09-22T04:24:54.838Z,3.03
2018-09-22T04:27:24.982Z,1.87
2018-09-22T04:29:55.043Z,2.17
2018-09-22T04:32:25.395Z,3.17
2018-09-22T04:34:55.508Z,2.40
2018-09-22T04:37:25.919Z,3.47
2018-09-22T04:39:56.379Z,1.73
2018-09-22T04:42:30.223Z,3.80
2018-09-22T04:45:00.605Z,3.13
2018-09-22T04:47:30.881Z,2.10
2018-09-22T04:50:01.037Z,1.50
2018-09-22T04:52:31.670Z,1.80
2018-09-22T04:55:02.305Z,2.93
2018-09-22T04:57:32.485Z,1.77
2018-09-22T05:00:02.626Z,4.40
2018-09-22T05:02:32.899Z,2.47
2018-09-22T05:05:03.001Z,1.47
2018-09-22T05:07:33.632Z,1.80
2018-09-22T05:10:03.890Z,1.60
2018-09-22T05:12:34.040Z,3.83
2018-09-22T05:15:05.013Z,2.97
2018-09-22T05:17:35.195Z,6.20
2018-09-22T05:20:05.445Z,2.80
2018-09-22T05:22:35.588Z,2.77
2018-09-22T05:25:05.939Z,2.80
2018-09-22T05:27:36.381Z,3.77
2018-09-22T05:30:06.620Z,3.63
2018-09-22T05:32:40.659Z,4.60
2018-09-22T05:35:15.619Z,3.13
2018-09-22T05:37:45.565Z,4.40
2018-09-22T05:40:15.595Z,3.60
2018-09-22T05:42:45.950Z,4.87
2018-09-22T05:45:15.984Z,2.97
2018-09-22T05:47:45.977Z,5.20
2018-09-22T05:50:15.935Z,5.73
2018-09-22T05:52:46.558Z,4.23
2018-09-22T05:55:16.830Z,4.70
2018-09-22T05:57:46.851Z,3.63
2018-09-22T06:00:16.954Z,5.77
2018-09-22T06:02:47.120Z,4.20
2018-09-22T06:05:17.237Z,4.10
2018-09-22T06:07:48.777Z,6.67
2018-09-22T06:10:20.544Z,5.57
2018-09-22T06:12:52.261Z,2.13
2018-09-22T06:15:22.309Z,5.10
2018-09-22T06:17:54.158Z,4.50
2018-09-22T06:20:24.690Z,7.80
2018-09-22T06:22:54.702Z,3.53
2018-09-22T06:25:24.747Z,6.40
2018-09-22T06:27:55.022Z,3.97
2018-09-22T06:30:24.996Z,4.23
2018-09-22T06:32:55.000Z,6.20
2018-09-22T06:35:25.218Z,7.97
2018-09-22T06:37:56.538Z,3.33
2018-09-22T06:40:26.870Z,3.67
2018-09-22T06:42:57.059Z,3.77
2018-09-22T06:45:27.199Z,3.63
2018-09-22T06:47:57.583Z,2.83
2018-09-22T06:50:28.630Z,2.40
2018-09-22T06:52:58.796Z,5.80
2018-09-22T06:55:28.777Z,4.87
2018-09-22T06:57:58.793Z,3.97
2018-09-22T07:00:28.880Z,4.23
2018-09-22T07:02:58.994Z,7.47
2018-09-22T07:05:29.190Z,5.70
2018-09-22T07:07:59.261Z,5.40
2018-09-22T07:10:29.480Z,5.03
2018-09-22T07:12:59.600Z,5.87
2018-09-22T07:15:29.632Z,6.77
2018-09-22T07:17:59.633Z,7.90
2018-09-22T07:20:29.665Z,3.93
2018-09-22T07:23:05.105Z,5.20
2018-09-22T07:25:35.099Z,8.07
2018-09-22T07:28:05.170Z,6.53
2018-09-22T07:30:35.236Z,3.50
2018-09-22T07:33:05.334Z,7.00
2018-09-22T07:35:35.508Z,5.10
2018-09-22T07:38:05.948Z,3.57
2018-09-22T07:40:36.000Z,6.30
2018-09-22T07:43:06.083Z,5.73
2018-09-22T07:45:36.292Z,7.70
2018-09-22T07:48:06.326Z,4.63
2018-09-22T07:50:36.498Z,4.57
2018-09-22T07:53:06.438Z,6.40
2018-09-22T07:55:36.585Z,5.07
2018-09-22T07:58:06.944Z,5.53
2018-09-22T08:00:37.026Z,5.77
2018-09-22T08:03:07.265Z,4.97
2018-09-22T08:05:37.280Z,6.07
2018-09-22T08:08:07.408Z,4.30
2018-09-22T08:10:37.438Z,5.40
2018-09-22T08:13:08.052Z,5.00
2018-09-22T08:15:38.065Z,8.10
2018-09-22T08:18:08.394Z,9.17
2018-09-22T08:20:38.491Z,11.50
2018-09-22T08:23:08.549Z,9.83
2018-09-22T08:25:38.650Z,5.53
2018-09-22T08:28:08.887Z,7.47
2018-09-22T08:30:39.210Z,5.97
2018-09-22T08:33:09.669Z,5.27
2018-09-22T08:35:39.871Z,5.50
2018-09-22T08:38:10.100Z,5.07
2018-09-22T08:40:40.242Z,5.70
2018-09-22T08:43:11.790Z,4.67
2018-09-22T08:45:42.275Z,5.93
2018-09-22T08:48:13.354Z,3.80
2018-09-22T08:50:44.344Z,5.63
2018-09-22T08:53:15.356Z,10.07
2018-09-22T08:55:45.447Z,9.67
2018-09-22T08:58:16.855Z,11.47
2018-09-22T09:00:48.078Z,8.40
2018-09-22T09:03:18.621Z,9.83
2018-09-22T09:05:48.784Z,7.80
2018-09-22T09:08:19.835Z,6.57
2018-09-22T09:10:50.576Z,7.40
2018-09-22T09:13:21.490Z,7.50
2018-09-22T09:15:52.184Z,6.83
2018-09-22T09:18:23.797Z,6.00
2018-09-22T09:20:54.614Z,6.30
2018-09-22T09:23:25.847Z,8.47
2018-09-22T09:25:56.139Z,8.23
2018-09-22T09:28:26.209Z,8.27
2018-09-22T09:30:56.821Z,8.07
2018-09-22T09:33:28.524Z,11.63
2018-09-22T09:36:00.118Z,27.83
2018-09-22T09:38:32.131Z,20.73
2018-09-22T09:41:02.598Z,22.00
2018-09-22T09:43:33.293Z,19.30
2018-09-22T09:46:04.008Z,20.50
2018-09-22T09:48:34.669Z,16.27
2018-09-22T09:51:05.862Z,14.63
2018-09-22T09:53:36.198Z,13.93
2018-09-22T09:56:07.195Z,12.87
2018-09-22T09:58:38.273Z,13.17
2018-09-22T10:01:08.527Z,11.20
2018-09-22T10:03:39.050Z,15.67
2018-09-22T10:06:10.453Z,21.87
2018-09-22T10:08:41.239Z,24.20
2018-09-22T10:11:11.290Z,28.70
2018-09-22T10:13:42.794Z,40.40
2018-09-22T10:16:13.977Z,33.10
2018-09-22T10:18:44.205Z,26.77
2018-09-22T10:21:15.221Z,24.67
2018-09-22T10:23:47.288Z,21.17
2018-09-22T10:26:18.616Z,21.57
2018-09-22T10:28:49.765Z,17.10
2018-09-22T10:31:22.296Z,16.47
2018-09-22T10:33:54.288Z,14.07
2018-09-22T10:36:26.392Z,14.27
2018-09-22T10:38:56.874Z,12.90
2018-09-22T10:41:27.436Z,12.30
2018-09-22T10:43:58.988Z,12.23
2018-09-22T10:46:30.246Z,10.63
2018-09-22T10:49:01.359Z,10.43
2018-09-22T10:51:32.912Z,9.83
2018-09-22T10:54:03.654Z,10.93
2018-09-22T10:56:35.340Z,11.63
2018-09-22T10:59:06.841Z,9.33
2018-09-22T11:01:37.162Z,10.80
2018-09-22T11:04:09.911Z,9.53
2018-09-22T11:06:41.235Z,12.07
2018-09-22T11:09:11.698Z,10.43
2018-09-22T11:11:42.279Z,8.60
2018-09-22T11:14:15.433Z,7.90
2018-09-22T11:16:46.191Z,12.53
2018-09-22T11:19:16.643Z,7.80
2018-09-22T11:21:47.901Z,17.63
2018-09-22T11:24:19.346Z,10.00
2018-09-22T11:26:49.869Z,8.80
2018-09-22T11:29:20.863Z,10.47
2018-09-22T11:31:51.172Z,9.58
2018-09-22T11:34:21.352Z,10.87
2018-09-22T11:36:52.286Z,5.80
2018-09-22T11:39:23.338Z,7.80
2018-09-22T11:41:54.304Z,7.83
2018-09-22T11:44:26.182Z,8.47
2018-09-22T11:46:57.201Z,4.90
2018-09-22T11:49:32.721Z,10.83
2018-09-22T11:52:04.913Z,8.60
2018-09-22T11:54:35.456Z,9.20
2018-09-22T11:57:06.184Z,8.40
2018-09-22T11:59:38.514Z,9.07
2018-09-22T12:02:08.336Z,6.60
2018-09-22T12:04:39.696Z,9.37
2018-09-22T12:07:11.104Z,5.63
2018-09-22T12:09:43.068Z,5.73
2018-09-22T12:12:13.551Z,6.40
2018-09-22T12:14:44.695Z,4.37
2018-09-22T12:17:20.016Z,5.73
2018-09-22T12:19:51.576Z,4.93
2018-09-22T12:22:27.917Z,3.37
2018-09-22T12:24:59.198Z,3.67
2018-09-22T12:27:30.417Z,6.53
2018-09-22T12:30:01.480Z,4.00
2018-09-22T12:32:32.282Z,5.03
2018-09-22T12:35:04.346Z,5.37
2018-09-22T12:37:35.187Z,3.63
2018-09-22T12:40:06.321Z,5.07
2018-09-22T12:42:37.138Z,4.03
2018-09-22T12:45:07.418Z,7.13
2018-09-22T12:47:38.451Z,4.60
2018-09-22T12:50:08.760Z,3.20
2018-09-22T12:52:39.181Z,3.43
2018-09-22T12:55:09.317Z,5.60
2018-09-22T12:57:40.153Z,2.63
2018-09-22T13:00:10.905Z,3.77
2018-09-22T13:02:41.197Z,4.97
2018-09-22T13:05:12.457Z,3.47
2018-09-22T13:07:44.016Z,5.10
2018-09-22T13:10:15.447Z,6.40
2018-09-22T13:12:46.921Z,3.37
2018-09-22T13:15:17.883Z,5.97
2018-09-22T13:17:48.324Z,5.43
2018-09-22T13:20:20.246Z,2.97
2018-09-22T13:22:51.569Z,4.57
2018-09-22T13:25:22.689Z,5.03
2018-09-22T13:27:54.626Z,6.70
2018-09-22T13:30:25.209Z,5.20
2018-09-22T13:32:56.408Z,4.57
2018-09-22T13:35:28.667Z,4.83
2018-09-22T13:38:00.475Z,6.33
2018-09-22T13:40:32.607Z,5.07
2018-09-22T13:43:04.017Z,4.60
2018-09-22T13:45:34.841Z,5.47
2018-09-22T13:48:06.884Z,5.27
2018-09-22T13:50:37.168Z,6.27
2018-09-22T13:53:09.081Z,8.17
2018-09-22T13:55:39.092Z,4.90
2018-09-22T13:58:09.477Z,6.30
2018-09-22T14:00:41.105Z,4.90
2018-09-22T14:03:12.244Z,6.93
2018-09-22T14:05:42.975Z,7.47
2018-09-22T14:08:13.285Z,7.67
2018-09-22T14:10:43.605Z,4.50
2018-09-22T14:13:13.939Z,5.13
2018-09-22T14:15:45.025Z,6.43
2018-09-22T14:18:18.499Z,3.93
2018-09-22T14:20:50.015Z,5.03
2018-09-22T14:23:20.502Z,4.80
2018-09-22T14:25:51.281Z,6.83
2018-09-22T14:28:21.529Z,4.30
2018-09-22T14:30:53.604Z,4.50
2018-09-22T14:33:24.790Z,8.37
2018-09-22T14:35:54.939Z,4.93
2018-09-22T14:38:25.056Z,6.20
2018-09-22T14:40:55.815Z,5.03
2018-09-22T14:43:26.241Z,5.33
2018-09-22T14:45:56.781Z,3.20
2018-09-22T14:48:26.947Z,3.80
2018-09-22T14:50:57.597Z,3.47
2018-09-22T14:53:29.635Z,5.80
2018-09-22T14:56:00.210Z,3.33
2018-09-22T14:58:31.693Z,5.90
2018-09-22T15:01:02.987Z,2.77
2018-09-22T15:03:34.063Z,3.10
2018-09-22T15:06:05.500Z,4.10
2018-09-22T15:08:38.236Z,2.87
2018-09-22T15:11:08.916Z,4.87
2018-09-22T15:13:40.508Z,4.87
2018-09-22T15:16:11.433Z,4.87
2018-09-22T15:18:41.781Z,4.50
2018-09-22T15:21:12.637Z,2.50
2018-09-22T15:23:43.335Z,4.30
2018-09-22T15:26:14.360Z,3.17
2018-09-22T15:28:46.092Z,4.83
2018-09-22T15:31:17.573Z,2.80
2018-09-22T15:33:49.599Z,4.20
2018-09-22T15:36:20.758Z,1.83
2018-09-22T15:38:52.112Z,2.43
2018-09-22T15:41:23.797Z,5.23
2018-09-22T15:43:55.890Z,7.33
2018-09-22T15:46:26.926Z,5.93
2018-09-22T15:48:58.042Z,4.97
2018-09-22T15:51:28.352Z,3.63
2018-09-22T15:53:58.686Z,3.97
2018-09-22T15:56:30.570Z,2.93
2018-09-22T15:59:01.652Z,4.07
2018-09-22T16:01:32.550Z,7.40
2018-09-22T16:04:03.250Z,5.70
2018-09-22T16:06:34.132Z,14.47
2018-09-22T16:09:06.992Z,6.23
2018-09-22T16:11:41.006Z,5.90
2018-09-22T16:14:11.319Z,9.87
2018-09-22T16:16:41.650Z,8.93
2018-09-22T16:19:12.709Z,6.20
2018-09-22T16:21:44.410Z,5.40
2018-09-22T16:24:15.386Z,7.00
2018-09-22T16:26:48.078Z,7.57
2018-09-22T16:29:18.799Z,5.93
2018-09-22T16:31:49.566Z,4.60
2018-09-22T16:34:20.014Z,5.83
2018-09-22T16:36:51.356Z,6.33
2018-09-22T16:39:22.456Z,4.53
2018-09-22T16:41:53.447Z,6.60
2018-09-22T16:44:25.140Z,5.47
2018-09-22T16:46:56.173Z,7.40
2018-09-22T16:49:26.477Z,5.67
2018-09-22T16:51:58.210Z,9.73
2018-09-22T16:54:30.313Z,9.93
2018-09-22T16:57:01.051Z,8.50
2018-09-22T16:59:31.773Z,7.43
2018-09-22T17:02:02.326Z,7.00
2018-09-22T17:04:33.177Z,4.10
2018-09-22T17:07:04.793Z,7.60
2018-09-22T17:09:35.832Z,3.57
2018-09-22T17:12:06.088Z,4.77
2018-09-22T17:14:38.044Z,7.63
2018-09-22T17:17:08.655Z,5.60
2018-09-22T17:19:39.652Z,7.93
2018-09-22T17:22:09.898Z,5.70
2018-09-22T17:24:39.951Z,8.97
2018-09-22T17:27:10.269Z,6.10
2018-09-22T17:29:41.457Z,7.50
2018-09-22T17:32:12.154Z,7.23
2018-09-22T17:34:42.983Z,7.50
2018-09-22T17:37:15.453Z,9.30
2018-09-22T17:39:47.147Z,7.20
2018-09-22T17:42:18.782Z,5.20
2018-09-22T17:44:49.271Z,9.10
2018-09-22T17:47:20.771Z,15.03
2018-09-22T17:49:56.224Z,26.97
2018-09-22T17:52:26.434Z,31.90
2018-09-22T17:54:57.130Z,77.17
2018-09-22T17:57:28.913Z,124.43
2018-09-22T17:59:59.044Z,91.10
2018-09-22T18:02:31.795Z,84.47
2018-09-22T18:05:02.911Z,68.23
2018-09-22T18:07:34.020Z,60.50
2018-09-22T18:10:06.279Z,57.47
2018-09-22T18:12:38.643Z,57.70
2018-09-22T18:15:09.524Z,58.27
2018-09-22T18:17:40.349Z,55.43
2018-09-22T18:20:12.572Z,50.20
2018-09-22T18:22:43.841Z,48.47
2018-09-22T18:25:14.513Z,46.83
2018-09-22T18:27:45.659Z,42.00
2018-09-22T18:30:16.114Z,44.60
2018-09-22T18:32:46.412Z,41.07
2018-09-22T18:35:18.392Z,39.20
2018-09-22T18:37:50.791Z,37.37
2018-09-22T18:40:21.283Z,42.93
2018-09-22T18:42:51.999Z,33.63
2018-09-22T18:45:22.643Z,37.60
2018-09-22T18:47:53.129Z,39.70
2018-09-22T18:50:23.815Z,32.03
2018-09-22T18:52:54.501Z,32.07
2018-09-22T18:55:25.507Z,32.00
2018-09-22T18:57:55.691Z,33.23
2018-09-22T19:00:26.950Z,29.43
2018-09-22T19:02:58.558Z,27.70
2018-09-22T19:05:28.637Z,30.00
2018-09-22T19:07:58.808Z,27.17
2018-09-22T19:10:29.836Z,26.83
2018-09-22T19:13:03.154Z,26.57
2018-09-22T19:15:39.568Z,28.60
2018-09-22T19:18:17.419Z,27.50
2018-09-22T19:20:54.172Z,26.17
2018-09-22T19:23:32.124Z,26.50
2018-09-22T19:26:07.820Z,24.03
2018-09-22T19:28:45.856Z,24.27
2018-09-22T19:31:20.817Z,22.80
2018-09-22T19:33:55.095Z,22.97
2018-09-22T19:36:29.272Z,21.73
2018-09-22T19:39:03.597Z,18.63
2018-09-22T19:41:39.956Z,22.63
2018-09-22T19:44:30.482Z,22.83
2018-09-22T19:47:09.222Z,21.37
2018-09-22T19:49:52.376Z,20.13
2018-09-22T19:52:58.883Z,23.43
2018-09-22T19:55:29.385Z,19.03
2018-09-22T19:57:59.970Z,16.00
2018-09-22T20:00:30.406Z,18.53
2018-09-22T20:03:01.447Z,14.43
2018-09-22T20:05:31.550Z,13.17
2018-09-22T20:08:02.193Z,17.03
2018-09-22T20:10:32.658Z,15.50
2018-09-22T20:13:03.129Z,17.30
2018-09-22T20:15:33.518Z,15.13
2018-09-22T20:18:03.752Z,16.40
2018-09-22T20:20:34.586Z,14.93
2018-09-22T20:23:05.087Z,11.93
2018-09-22T20:25:35.322Z,12.23
2018-09-22T20:28:05.684Z,16.30
2018-09-22T20:30:35.881Z,22.30
2018-09-22T20:33:06.306Z,14.80
2018-09-22T20:35:37.032Z,10.50
2018-09-22T20:38:07.627Z,12.77
2018-09-22T20:40:37.841Z,11.50
2018-09-22T20:43:08.105Z,10.27
2018-09-22T20:45:38.895Z,14.63
2018-09-22T20:48:09.333Z,13.37
2018-09-22T20:50:39.754Z,12.57
2018-09-22T20:53:10.597Z,9.53
2018-09-22T20:55:40.915Z,12.53
2018-09-22T20:58:11.469Z,11.33
2018-09-22T21:00:42.011Z,10.87
2018-09-22T21:03:12.739Z,10.27
2018-09-22T21:05:42.960Z,9.97
2018-09-22T21:08:13.248Z,13.03
2018-09-22T21:10:43.451Z,13.07
2018-09-22T21:13:14.003Z,10.50
2018-09-22T21:15:44.736Z,14.90
2018-09-22T21:18:14.980Z,8.60
2018-09-22T21:20:45.208Z,9.80
2018-09-22T21:23:15.962Z,10.97
2018-09-22T21:25:45.995Z,8.63
2018-09-22T21:28:16.386Z,9.30
2018-09-22T21:30:46.880Z,9.20
2018-09-22T21:33:17.300Z,7.77
2018-09-22T21:35:48.000Z,8.53
2018-09-22T21:38:18.137Z,7.83
2018-09-22T21:40:48.390Z,9.30
2018-09-22T21:43:18.763Z,9.17
2018-09-22T21:45:49.179Z,11.80
2018-09-22T21:48:19.615Z,9.37
2018-09-22T21:50:49.781Z,6.83
2018-09-22T21:53:20.023Z,7.03
2018-09-22T21:55:50.581Z,9.07
2018-09-22T21:58:20.826Z,10.47
2018-09-22T22:00:53.081Z,6.43
2018-09-22T22:03:23.940Z,7.10
2018-09-22T22:05:54.133Z,8.73
2018-09-22T22:08:24.097Z,8.23
2018-09-22T22:10:54.171Z,8.30
2018-09-22T22:13:24.374Z,6.90
2018-09-22T22:15:54.643Z,7.97
2018-09-22T22:18:24.943Z,5.37
2018-09-22T22:20:55.046Z,7.63
2018-09-22T22:23:25.164Z,6.47
2018-09-22T22:25:55.265Z,6.47
2018-09-22T22:28:25.314Z,6.77
2018-09-22T22:30:55.464Z,6.07
2018-09-22T22:33:25.632Z,6.17
2018-09-22T22:35:55.668Z,7.00
2018-09-22T22:38:25.708Z,4.77
2018-09-22T22:40:56.121Z,6.43
2018-09-22T22:43:26.732Z,5.10
2018-09-22T22:45:57.178Z,5.77
2018-09-22T22:48:27.774Z,5.53
2018-09-22T22:50:58.142Z,4.63
2018-09-22T22:53:28.640Z,5.60
2018-09-22T22:55:58.856Z,5.30
2018-09-22T22:58:29.195Z,4.97
2018-09-22T23:00:59.442Z,6.17
2018-09-22T23:03:29.984Z,5.63
2018-09-22T23:06:00.615Z,4.63
2018-09-22T23:08:30.870Z,4.93
2018-09-22T23:11:01.183Z,4.97
2018-09-22T23:13:31.434Z,4.87
2018-09-22T23:16:01.569Z,3.97
2018-09-22T23:18:31.775Z,5.23
2018-09-22T23:21:01.958Z,4.90
2018-09-22T23:23:32.338Z,4.53
2018-09-22T23:26:02.824Z,4.70
2018-09-22T23:28:32.986Z,3.20
2018-09-22T23:31:03.418Z,3.43
2018-09-22T23:33:33.550Z,3.93
2018-09-22T23:36:03.927Z,5.00
2018-09-22T23:41:36.889Z,4.40
2018-09-22T23:44:07.715Z,4.57
2018-09-22T23:49:16.308Z,3.97
2018-09-22T23:51:46.562Z,3.30
2018-09-22T23:54:16.520Z,5.27
2018-09-22T23:56:46.671Z,3.50
2018-09-22T23:59:16.799Z,3.03
